createdAt,value
2016-04-07T00:00:41.385Z,0
2016-04-07T00:01:26.855Z,0
2016-04-07T00:02:26.858Z,0
2016-04-07T00:03:27.111Z,0
2016-04-07T00:04:26.926Z,0
2016-04-07T00:05:26.913Z,0
2016-04-07T00:06:27.072Z,0
2016-04-07T00:07:26.888Z,0
2016-04-07T00:08:27.016Z,0
2016-04-07T00:09:26.939Z,0
2016-04-07T00:10:27.130Z,0
2016-04-07T00:12:26.886Z,0
2016-04-07T00:13:27.091Z,0
2016-04-07T00:14:26.922Z,0
2016-04-07T00:15:26.455Z,0
2016-04-07T00:16:26.920Z,0
2016-04-07T00:17:27.014Z,0
2016-04-07T00:18:27.217Z,0
2016-04-07T00:19:27.092Z,0
2016-04-07T00:20:27.108Z,0
2016-04-07T00:21:27.545Z,0
2016-04-07T00:22:27.408Z,0
2016-04-07T00:23:27.567Z,0
2016-04-07T00:24:41.303Z,0
2016-04-07T00:25:27.244Z,0
2016-04-07T00:26:27.445Z,0
2016-04-07T00:27:27.250Z,0
2016-04-07T00:28:27.492Z,0
2016-04-07T00:29:41.377Z,0
2016-04-07T00:30:27.275Z,0
2016-04-07T00:31:26.797Z,0
2016-04-07T00:32:27.302Z,0
2016-04-07T00:33:27.291Z,0
2016-04-07T00:34:27.560Z,0
2016-04-07T00:35:27.721Z,0
2016-04-07T00:36:27.585Z,0
2016-04-07T00:37:41.808Z,0
2016-04-07T00:38:27.889Z,0
2016-04-07T00:39:27.518Z,0
2016-04-07T00:40:27.318Z,0
2016-04-07T00:41:27.353Z,0
2016-04-07T00:42:27.542Z,0
2016-04-07T00:43:27.359Z,0
2016-04-07T00:44:27.456Z,0
2016-04-07T00:45:27.926Z,0
2016-04-07T00:46:27.540Z,0
2016-04-07T00:47:27.542Z,0
2016-04-07T00:48:27.544Z,0
2016-04-07T00:49:27.359Z,0
2016-04-07T00:50:27.800Z,0
2016-04-07T00:51:27.834Z,0
2016-04-07T00:52:27.602Z,0
2016-04-07T00:53:27.573Z,0
2016-04-07T00:54:27.779Z,0
2016-04-07T00:55:27.829Z,0
2016-04-07T00:56:26.925Z,0
2016-04-07T00:57:27.397Z,0
2016-04-07T00:58:27.353Z,0
2016-04-07T00:59:27.589Z,0
2016-04-07T01:00:27.795Z,0
2016-04-07T01:01:27.595Z,0
2016-04-07T01:02:27.380Z,0
2016-04-07T01:04:41.494Z,0
2016-04-07T01:05:41.481Z,0
2016-04-07T01:06:27.578Z,0
2016-04-07T01:07:27.377Z,0
2016-04-07T01:08:27.708Z,0
2016-04-07T01:09:27.414Z,0
2016-04-07T01:10:27.807Z,0
2016-04-07T01:11:27.825Z,0
2016-04-07T01:13:27.409Z,0
2016-04-07T01:14:27.287Z,0
2016-04-07T01:15:28.071Z,0
2016-04-07T01:16:27.417Z,0
2016-04-07T01:17:27.606Z,0
2016-04-07T01:18:27.500Z,0
2016-04-07T01:19:27.628Z,0
2016-04-07T01:20:41.537Z,0
2016-04-07T01:21:27.431Z,0
2016-04-07T01:22:27.433Z,0
2016-04-07T01:23:27.482Z,0
2016-04-07T01:24:27.500Z,0
2016-04-07T01:25:27.441Z,0
2016-04-07T01:26:27.694Z,0
2016-04-07T01:27:27.665Z,0
2016-04-07T01:28:27.839Z,0
2016-04-07T01:29:27.655Z,0
2016-04-07T01:30:41.767Z,0
2016-04-07T01:31:27.472Z,0
2016-04-07T01:32:27.694Z,0
2016-04-07T01:33:27.431Z,0
2016-04-07T01:34:27.449Z,0
2016-04-07T01:35:27.452Z,0
2016-04-07T01:36:41.549Z,0
2016-04-07T01:37:27.474Z,0
2016-04-07T01:38:27.664Z,0
2016-04-07T01:40:27.497Z,0
2016-04-07T01:41:27.452Z,0
2016-04-07T01:42:26.737Z,0
2016-04-07T01:43:27.490Z,0
2016-04-07T01:44:27.664Z,0
2016-04-07T01:45:27.479Z,0
2016-04-07T01:46:27.482Z,0
2016-04-07T01:47:27.484Z,0
2016-04-07T01:48:27.893Z,0
2016-04-07T01:49:27.521Z,0
2016-04-07T01:50:27.524Z,0
2016-04-07T01:51:27.511Z,0
2016-04-07T01:52:27.717Z,0
2016-04-07T01:53:27.517Z,0
2016-04-07T01:54:27.534Z,0
2016-04-07T01:55:27.334Z,0
2016-04-07T01:56:27.493Z,0
2016-04-07T01:57:27.527Z,0
2016-04-07T01:58:27.514Z,0
2016-04-07T02:00:27.535Z,0
2016-04-07T02:01:28.366Z,0
2016-04-07T02:02:27.103Z,0
2016-04-07T02:03:27.511Z,0
2016-04-07T02:04:27.921Z,0
2016-04-07T02:05:27.736Z,0
2016-04-07T02:06:27.426Z,0
2016-04-07T02:07:27.741Z,0
2016-04-07T02:08:27.510Z,0
2016-04-07T02:09:27.528Z,0
2016-04-07T02:10:27.547Z,0
2016-04-07T02:11:27.752Z,0
2016-04-07T02:12:41.832Z,0
2016-04-07T02:13:27.539Z,0
2016-04-07T02:14:27.744Z,0
2016-04-07T02:15:27.544Z,0
2016-04-07T02:16:28.172Z,0
2016-04-07T02:17:28.362Z,0
2016-04-07T02:18:28.021Z,0
2016-04-07T02:19:27.618Z,0
2016-04-07T02:20:27.573Z,0
2016-04-07T02:21:27.560Z,0
2016-04-07T02:22:27.954Z,0
2016-04-07T02:23:27.487Z,0
2016-04-07T02:24:27.568Z,0
2016-04-07T02:25:27.103Z,0
2016-04-07T02:26:27.574Z,0
2016-04-07T02:27:27.576Z,0
2016-04-07T02:28:27.798Z,0
2016-04-07T02:30:27.601Z,0
2016-04-07T02:31:27.587Z,0
2016-04-07T02:32:27.308Z,0
2016-04-07T02:33:27.577Z,0
2016-04-07T02:34:27.611Z,0
2016-04-07T02:35:27.817Z,0
2016-04-07T02:36:27.601Z,0
2016-04-07T02:37:27.635Z,0
2016-04-07T02:38:27.605Z,0
2016-04-07T02:39:27.452Z,0
2016-04-07T02:40:27.143Z,0
2016-04-07T02:41:27.660Z,0
2016-04-07T02:42:27.632Z,0
2016-04-07T02:43:27.822Z,0
2016-04-07T02:44:27.122Z,0
2016-04-07T02:45:27.640Z,0
2016-04-07T02:46:27.612Z,0
2016-04-07T02:47:27.865Z,0
2016-04-07T02:48:27.649Z,0
2016-04-07T02:49:27.667Z,0
2016-04-07T02:50:28.060Z,0
2016-04-07T02:51:27.173Z,0
2016-04-07T02:52:27.690Z,0
2016-04-07T02:53:27.662Z,0
2016-04-07T02:54:27.649Z,0
2016-04-07T02:55:27.668Z,0
2016-04-07T02:56:41.748Z,0
2016-04-07T02:57:28.048Z,0
2016-04-07T02:58:27.206Z,0
2016-04-07T02:59:27.694Z,0
2016-04-07T03:00:27.650Z,0
2016-04-07T03:01:41.262Z,0
2016-04-07T03:02:27.233Z,0
2016-04-07T03:03:27.673Z,0
2016-04-07T03:04:27.676Z,0
2016-04-07T03:05:26.789Z,0
2016-04-07T03:06:27.947Z,0
2016-04-07T03:07:27.747Z,0
2016-04-07T03:08:27.687Z,0
2016-04-07T03:09:27.674Z,0
2016-04-07T03:10:27.692Z,0
2016-04-07T03:11:27.539Z,0
2016-04-07T03:12:27.714Z,0
2016-04-07T03:13:27.715Z,0
2016-04-07T03:14:27.702Z,0
2016-04-07T03:15:27.721Z,0
2016-04-07T03:16:27.708Z,0
2016-04-07T03:17:27.945Z,0
2016-04-07T03:18:27.229Z,0
2016-04-07T03:19:27.731Z,0
2016-04-07T03:20:27.735Z,0
2016-04-07T03:21:27.753Z,0
2016-04-07T03:22:27.756Z,0
2016-04-07T03:23:41.836Z,0
2016-04-07T03:24:28.073Z,0
2016-04-07T03:25:27.779Z,0
2016-04-07T03:26:27.782Z,0
2016-04-07T03:27:27.831Z,0
2016-04-07T03:28:27.990Z,0
2016-04-07T03:29:27.978Z,0
2016-04-07T03:30:28.183Z,0
2016-04-07T03:31:28.030Z,0
2016-04-07T03:32:27.783Z,0
2016-04-07T03:33:27.786Z,0
2016-04-07T03:34:27.866Z,0
2016-04-07T03:35:27.822Z,0
2016-04-07T03:36:28.012Z,0
2016-04-07T03:37:28.000Z,0
2016-04-07T03:38:28.017Z,0
2016-04-07T03:39:27.802Z,0
2016-04-07T03:40:27.820Z,0
2016-04-07T03:41:28.025Z,0
2016-04-07T03:42:28.013Z,0
2016-04-07T03:43:27.327Z,0
2016-04-07T03:44:28.019Z,0
2016-04-07T03:45:27.833Z,0
2016-04-07T03:46:28.024Z,0
2016-04-07T03:47:27.527Z,0
2016-04-07T03:48:41.918Z,0
2016-04-07T03:49:41.937Z,0
2016-04-07T03:50:28.237Z,0
2016-04-07T03:51:27.834Z,0
2016-04-07T03:53:42.168Z,0
2016-04-07T03:54:27.780Z,0
2016-04-07T03:55:42.157Z,0
2016-04-07T03:56:27.893Z,0
2016-04-07T03:57:27.850Z,0
2016-04-07T03:58:27.915Z,0
2016-04-07T03:59:28.120Z,0
2016-04-07T04:00:27.936Z,0
2016-04-07T04:01:28.142Z,0
2016-04-07T04:02:27.925Z,0
2016-04-07T04:03:27.678Z,0
2016-04-07T04:04:28.119Z,0
2016-04-07T04:05:42.028Z,0
2016-04-07T04:06:27.436Z,0
2016-04-07T04:07:28.533Z,0
2016-04-07T04:08:28.145Z,0
2016-04-07T04:09:28.148Z,0
2016-04-07T04:10:28.135Z,0
2016-04-07T04:11:27.919Z,0
2016-04-07T04:12:27.922Z,0
2016-04-07T04:13:27.939Z,0
2016-04-07T04:14:27.942Z,0
2016-04-07T04:16:27.932Z,0
2016-04-07T04:17:27.450Z,0
2016-04-07T04:18:27.953Z,0
2016-04-07T04:19:27.988Z,0
2016-04-07T04:20:28.193Z,0
2016-04-07T04:21:28.165Z,0
2016-04-07T04:22:28.230Z,0
2016-04-07T04:23:27.998Z,0
2016-04-07T04:24:28.016Z,0
2016-04-07T04:25:28.191Z,0
2016-04-07T04:26:27.974Z,5
2016-04-07T04:27:27.993Z,5
2016-04-07T04:28:28.027Z,5
2016-04-07T04:29:27.999Z,5
2016-04-07T04:30:42.281Z,5
2016-04-07T04:31:28.269Z,5
2016-04-07T04:32:28.287Z,5
2016-04-07T04:33:28.025Z,5
2016-04-07T04:34:27.746Z,10
2016-04-07T04:35:28.217Z,10
2016-04-07T04:36:28.001Z,10
2016-04-07T04:37:28.082Z,10
2016-04-07T04:38:27.538Z,15
2016-04-07T04:39:28.259Z,15
2016-04-07T04:40:28.059Z,15
2016-04-07T04:41:28.047Z,15
2016-04-07T04:42:28.252Z,20
2016-04-07T04:43:28.051Z,20
2016-04-07T04:44:28.054Z,20
2016-04-07T04:45:28.072Z,25
2016-04-07T04:46:28.263Z,25
2016-04-07T04:47:28.296Z,25
2016-04-07T04:48:28.096Z,25
2016-04-07T04:49:28.099Z,30
2016-04-07T04:50:28.102Z,30
2016-04-07T04:51:28.307Z,35
2016-04-07T04:52:28.138Z,35
2016-04-07T04:53:28.110Z,40
2016-04-07T04:54:27.941Z,40
2016-04-07T04:55:27.615Z,45
2016-04-07T04:56:42.446Z,50
2016-04-07T04:57:28.137Z,55
2016-04-07T04:58:28.139Z,55
2016-04-07T04:59:28.360Z,55
2016-04-07T05:00:42.253Z,60
2016-04-07T05:01:28.147Z,65
2016-04-07T05:02:28.384Z,65
2016-04-07T05:03:28.199Z,70
2016-04-07T05:04:42.483Z,75
2016-04-07T05:05:28.204Z,75
2016-04-07T05:06:28.192Z,75
2016-04-07T05:07:28.398Z,80
2016-04-07T05:08:28.166Z,85
2016-04-07T05:09:28.184Z,90
2016-04-07T05:10:28.202Z,90
2016-04-07T05:11:28.220Z,85
2016-04-07T05:12:28.442Z,90
2016-04-07T05:13:28.444Z,90
2016-04-07T05:14:28.261Z,90
2016-04-07T05:15:28.216Z,95
2016-04-07T05:16:28.469Z,95
2016-04-07T05:17:27.986Z,100
2016-04-07T05:18:28.239Z,100
2016-04-07T05:19:28.086Z,100
2016-04-07T05:20:28.291Z,105
2016-04-07T05:21:28.247Z,110
2016-04-07T05:22:42.594Z,115
2016-04-07T05:23:28.534Z,125
2016-04-07T05:24:28.255Z,125
2016-04-07T05:25:27.804Z,130
2016-04-07T05:26:28.542Z,135
2016-04-07T05:27:28.701Z,135
2016-04-07T05:28:28.485Z,140
2016-04-07T05:29:28.504Z,140
2016-04-07T05:30:28.318Z,145
2016-04-07T05:31:27.571Z,150
2016-04-07T05:32:27.823Z,155
2016-04-07T05:33:28.404Z,155
2016-04-07T05:34:28.548Z,155
2016-04-07T05:35:28.160Z,160
2016-04-07T05:36:28.522Z,160
2016-04-07T05:37:28.353Z,160
2016-04-07T05:38:42.825Z,160
2016-04-07T05:39:28.484Z,160
2016-04-07T05:40:28.361Z,150
2016-04-07T05:41:28.661Z,145
2016-04-07T05:42:28.788Z,150
2016-04-07T05:43:28.572Z,150
2016-04-07T05:44:28.388Z,150
2016-04-07T05:45:28.391Z,145
2016-04-07T05:46:42.674Z,140
2016-04-07T05:47:27.958Z,140
2016-04-07T05:48:28.430Z,140
2016-04-07T05:49:28.652Z,140
2016-04-07T05:50:28.638Z,145
2016-04-07T05:51:42.516Z,150
2016-04-07T05:52:28.831Z,160
2016-04-07T05:53:27.974Z,175
2016-04-07T05:54:28.836Z,205
2016-04-07T05:55:28.464Z,195
2016-04-07T05:56:28.671Z,175
2016-04-07T05:57:27.954Z,165
2016-04-07T05:58:28.487Z,165
2016-04-07T05:59:29.099Z,165
2016-04-07T06:00:42.618Z,170
2016-04-07T06:01:28.604Z,165
2016-04-07T06:02:28.686Z,170
2016-04-07T06:03:28.517Z,175
2016-04-07T06:04:28.520Z,180
2016-04-07T06:05:28.740Z,180
2016-04-07T06:06:28.540Z,185
2016-04-07T06:07:28.542Z,185
2016-04-07T06:08:28.769Z,190
2016-04-07T06:09:28.647Z,200
2016-04-07T06:10:28.587Z,205
2016-04-07T06:11:28.575Z,210
2016-04-07T06:12:42.655Z,210
2016-04-07T06:13:28.580Z,205
2016-04-07T06:14:28.802Z,200
2016-04-07T06:15:42.210Z,210
2016-04-07T06:16:28.088Z,210
2016-04-07T06:17:42.685Z,210
2016-04-07T06:18:28.843Z,205
2016-04-07T06:19:28.596Z,205
2016-04-07T06:20:28.802Z,205
2016-04-07T06:21:29.055Z,210
2016-04-07T06:23:28.638Z,220
2016-04-07T06:24:29.015Z,220
2016-04-07T06:25:28.643Z,225
2016-04-07T06:26:28.661Z,235
2016-04-07T06:28:28.495Z,245
2016-04-07T06:30:28.890Z,245
2016-04-07T06:31:28.737Z,245
2016-04-07T06:32:28.709Z,245
2016-04-07T06:33:28.914Z,250
2016-04-07T06:34:28.714Z,250
2016-04-07T06:35:28.748Z,245
2016-04-07T06:36:28.736Z,250
2016-04-07T06:37:28.738Z,250
2016-04-07T06:38:28.741Z,245
2016-04-07T06:39:29.008Z,240
2016-04-07T06:40:28.747Z,240
2016-04-07T06:41:28.764Z,245
2016-04-07T06:42:29.017Z,250
2016-04-07T06:43:28.770Z,250
2016-04-07T06:44:28.789Z,240
2016-04-07T06:45:28.791Z,220
2016-04-07T06:46:28.793Z,205
2016-04-07T06:47:57.015Z,190
2016-04-07T06:48:28.846Z,185
2016-04-07T06:49:28.833Z,190
2016-04-07T06:50:28.836Z,190
2016-04-07T06:51:29.072Z,195
2016-04-07T06:52:29.091Z,210
2016-04-07T06:53:29.484Z,235
2016-04-07T06:54:29.440Z,270
2016-04-07T06:55:28.864Z,285
2016-04-07T06:56:28.898Z,300
2016-04-07T06:57:29.120Z,295
2016-04-07T06:58:28.904Z,280
2016-04-07T06:59:43.016Z,290
2016-04-07T07:00:28.987Z,290
2016-04-07T07:01:29.131Z,285
2016-04-07T07:02:29.180Z,300
2016-04-07T07:03:28.964Z,300
2016-04-07T07:04:28.951Z,290
2016-04-07T07:05:28.485Z,295
2016-04-07T07:06:29.176Z,290
2016-04-07T07:07:29.006Z,275
2016-04-07T07:08:28.978Z,275
2016-04-07T07:09:29.215Z,290
2016-04-07T07:10:28.983Z,320
2016-04-07T07:11:28.876Z,335
2016-04-07T07:12:29.050Z,340
2016-04-07T07:13:43.335Z,340
2016-04-07T07:14:43.588Z,345
2016-04-07T07:15:29.278Z,345
2016-04-07T07:16:29.015Z,350
2016-04-07T07:17:29.142Z,345
2016-04-07T07:18:29.114Z,355
2016-04-07T07:19:29.304Z,345
2016-04-07T07:20:29.135Z,370
2016-04-07T07:21:29.153Z,345
2016-04-07T07:22:43.421Z,345
2016-04-07T07:23:29.127Z,350
2016-04-07T07:24:29.332Z,430
2016-04-07T07:25:30.632Z,355
2016-04-07T07:26:30.870Z,335
2016-04-07T07:27:31.107Z,325
2016-04-07T07:28:33.016Z,315
2016-04-07T07:29:30.174Z,320
2016-04-07T07:30:31.271Z,330
2016-04-07T07:31:32.320Z,330
2016-04-07T07:32:30.277Z,340
2016-04-07T07:33:30.004Z,355
2016-04-07T07:34:29.256Z,380
2016-04-07T07:35:28.993Z,400
2016-04-07T07:36:30.262Z,410
2016-04-07T07:37:29.796Z,410
2016-04-07T07:38:29.955Z,410
2016-04-07T07:39:30.025Z,410
2016-04-07T07:40:29.887Z,395
2016-04-07T07:41:29.436Z,380
2016-04-07T07:42:29.720Z,370
2016-04-07T07:43:30.395Z,375
2016-04-07T07:44:29.725Z,390
2016-04-07T07:45:29.947Z,405
2016-04-07T07:47:29.672Z,445
2016-04-07T07:48:30.018Z,455
2016-04-07T07:49:29.786Z,460
2016-04-07T07:50:29.711Z,465
2016-04-07T07:51:30.275Z,460
2016-04-07T07:52:29.388Z,445
2016-04-07T07:53:30.843Z,430
2016-04-07T07:54:31.596Z,410
2016-04-07T07:55:32.630Z,400
2016-04-07T07:56:31.851Z,385
2016-04-07T07:57:30.963Z,390
2016-04-07T07:58:31.091Z,395
2016-04-07T07:59:30.766Z,395
2016-04-07T08:00:29.785Z,400
2016-04-07T08:01:33.615Z,410
2016-04-07T08:02:30.274Z,415
2016-04-07T08:03:29.449Z,425
2016-04-07T08:04:30.217Z,435
2016-04-07T08:05:31.657Z,435
2016-04-07T08:06:29.737Z,425
2016-04-07T08:07:29.553Z,400
2016-04-07T08:08:29.759Z,380
2016-04-07T08:09:29.590Z,375
2016-04-07T08:10:30.499Z,395
2016-04-07T08:11:30.111Z,420
2016-04-07T08:12:29.973Z,400
2016-04-07T08:13:29.944Z,410
2016-04-07T08:14:30.134Z,410
2016-04-07T08:15:44.169Z,415
2016-04-07T08:16:30.140Z,430
2016-04-07T08:17:30.143Z,435
2016-04-07T08:18:30.114Z,435
2016-04-07T08:19:30.305Z,430
2016-04-07T08:20:30.119Z,420
2016-04-07T08:21:31.028Z,425
2016-04-07T08:22:30.125Z,425
2016-04-07T08:23:29.846Z,430
2016-04-07T08:24:30.271Z,405
2016-04-07T08:25:30.288Z,375
2016-04-07T08:26:30.260Z,355
2016-04-07T08:27:30.435Z,340
2016-04-07T08:28:30.469Z,330
2016-04-07T08:29:30.144Z,310
2016-04-07T08:30:30.616Z,305
2016-04-07T08:31:30.305Z,300
2016-04-07T08:32:30.621Z,320
2016-04-07T08:34:30.485Z,315
2016-04-07T08:35:30.690Z,325
2016-04-07T08:36:30.210Z,330
2016-04-07T08:37:30.354Z,320
2016-04-07T08:38:30.247Z,330
2016-04-07T08:39:30.609Z,335
2016-04-07T08:40:44.424Z,330
2016-04-07T08:41:30.239Z,325
2016-04-07T08:42:30.429Z,305
2016-04-07T08:43:29.291Z,285
2016-04-07T08:44:30.451Z,270
2016-04-07T08:45:30.532Z,270
2016-04-07T08:46:30.863Z,310
2016-04-07T08:47:30.287Z,360
2016-04-07T08:48:44.274Z,375
2016-04-07T08:49:30.354Z,375
2016-04-07T08:50:44.482Z,375
2016-04-07T08:51:30.484Z,360
2016-04-07T08:52:44.581Z,345
2016-04-07T08:53:43.912Z,335
2016-04-07T08:54:30.368Z,320
2016-04-07T08:55:30.683Z,330
2016-04-07T08:56:30.014Z,360
2016-04-07T08:57:30.298Z,410
2016-04-07T08:58:30.003Z,425
2016-04-07T08:59:30.897Z,450
2016-04-07T09:00:30.384Z,490
2016-04-07T09:01:29.793Z,480
2016-04-07T09:02:44.468Z,460
2016-04-07T09:03:30.533Z,465
2016-04-07T09:04:30.364Z,465
2016-04-07T09:05:30.835Z,485
2016-04-07T09:06:30.885Z,495
2016-04-07T09:07:30.449Z,475
2016-04-07T09:08:30.624Z,430
2016-04-07T09:09:29.986Z,405
2016-04-07T09:10:30.771Z,420
2016-04-07T09:11:30.726Z,415
2016-04-07T09:12:30.917Z,400
2016-04-07T09:13:30.966Z,375
2016-04-07T09:14:30.625Z,365
2016-04-07T09:15:30.096Z,345
2016-04-07T09:16:30.646Z,340
2016-04-07T09:17:30.743Z,355
2016-04-07T09:18:30.588Z,375
2016-04-07T09:19:30.935Z,390
2016-04-07T09:20:30.797Z,410
2016-04-07T09:21:30.972Z,445
2016-04-07T09:22:31.030Z,475
2016-04-07T09:23:30.975Z,490
2016-04-07T09:24:30.858Z,470
2016-04-07T09:25:31.022Z,430
2016-04-07T09:26:31.483Z,415
2016-04-07T09:27:31.178Z,420
2016-04-07T09:29:31.789Z,415
2016-04-07T09:31:31.242Z,405
2016-04-07T09:32:31.049Z,400
2016-04-07T09:33:31.338Z,410
2016-04-07T09:34:31.188Z,420
2016-04-07T09:35:31.086Z,465
2016-04-07T09:36:31.016Z,475
2016-04-07T09:37:31.146Z,425
2016-04-07T09:38:31.323Z,410
2016-04-07T09:39:31.437Z,375
2016-04-07T09:40:31.161Z,340
2016-04-07T09:41:31.337Z,325
2016-04-07T09:42:30.778Z,290
2016-04-07T09:43:31.375Z,250
2016-04-07T09:44:31.520Z,220
2016-04-07T09:45:31.413Z,210
2016-04-07T09:46:31.307Z,195
2016-04-07T09:47:31.263Z,175
2016-04-07T09:48:31.344Z,155
2016-04-07T09:49:31.316Z,135
2016-04-07T09:50:30.741Z,120
2016-04-07T09:51:31.336Z,110
2016-04-07T09:52:31.230Z,120
2016-04-07T09:53:31.420Z,135
2016-04-07T09:54:31.157Z,160
2016-04-07T09:55:31.176Z,150
2016-04-07T09:57:31.087Z,145
2016-04-07T09:58:31.496Z,210
2016-04-07T09:59:30.780Z,305
2016-04-07T10:00:31.220Z,425
2016-04-07T10:01:45.301Z,525
2016-04-07T10:02:31.194Z,540
2016-04-07T10:03:31.181Z,470
2016-04-07T10:04:31.246Z,425
2016-04-07T10:05:31.484Z,380
2016-04-07T10:06:30.737Z,380
2016-04-07T10:07:31.146Z,395
2016-04-07T10:08:31.131Z,425
2016-04-07T10:09:31.166Z,470
2016-04-07T10:10:31.075Z,485
2016-04-07T10:11:31.640Z,490
2016-04-07T10:12:31.205Z,475
2016-04-07T10:13:31.599Z,450
2016-04-07T10:14:31.945Z,430
2016-04-07T10:15:31.322Z,400
2016-04-07T10:16:31.592Z,360
2016-04-07T10:17:31.266Z,325
2016-04-07T10:18:31.128Z,285
2016-04-07T10:19:31.725Z,250
2016-04-07T10:20:31.180Z,220
2016-04-07T10:21:31.277Z,205
2016-04-07T10:22:32.357Z,210
2016-04-07T10:23:45.392Z,230
2016-04-07T10:24:31.222Z,250
2016-04-07T10:25:31.507Z,260
2016-04-07T10:26:31.525Z,260
2016-04-07T10:27:31.293Z,250
2016-04-07T10:28:31.186Z,255
2016-04-07T10:29:31.329Z,265
2016-04-07T10:30:32.004Z,290
2016-04-07T10:31:31.522Z,325
2016-04-07T10:32:31.978Z,350
2016-04-07T10:33:31.153Z,370
2016-04-07T10:34:31.343Z,405
2016-04-07T10:35:45.174Z,450
2016-04-07T10:36:31.207Z,465
2016-04-07T10:37:31.210Z,455
2016-04-07T10:38:31.744Z,445
2016-04-07T10:39:31.919Z,435
2016-04-07T10:40:31.264Z,420
2016-04-07T10:41:31.986Z,425
2016-04-07T10:42:31.692Z,460
2016-04-07T10:43:31.836Z,490
2016-04-07T10:44:31.808Z,455
2016-04-07T10:45:32.436Z,400
2016-04-07T10:46:31.875Z,360
2016-04-07T10:47:31.769Z,350
2016-04-07T10:48:31.865Z,390
2016-04-07T10:49:31.789Z,450
2016-04-07T10:50:31.730Z,500
2016-04-07T10:51:32.139Z,545
2016-04-07T10:52:31.705Z,550
2016-04-07T10:53:31.660Z,535
2016-04-07T10:54:32.100Z,530
2016-04-07T10:55:31.930Z,520
2016-04-07T10:56:31.840Z,510
2016-04-07T10:57:31.780Z,510
2016-04-07T10:58:31.798Z,530
2016-04-07T10:59:32.004Z,535
2016-04-07T11:00:31.850Z,520
2016-04-07T11:01:50.353Z,475
2016-04-07T11:02:31.981Z,450
2016-04-07T11:03:31.624Z,425
2016-04-07T11:04:32.299Z,440
2016-04-07T11:05:31.160Z,420
2016-04-07T11:06:31.976Z,395
2016-04-07T11:07:31.697Z,400
2016-04-07T11:08:32.293Z,390
2016-04-07T11:09:32.014Z,355
2016-04-07T11:10:32.127Z,315
2016-04-07T11:11:32.114Z,270
2016-04-07T11:12:32.086Z,220
2016-04-07T11:13:32.261Z,180
2016-04-07T11:14:46.185Z,165
2016-04-07T11:15:32.125Z,185
2016-04-07T11:16:32.065Z,195
2016-04-07T11:17:32.208Z,175
2016-04-07T11:18:32.211Z,150
2016-04-07T11:19:32.042Z,140
2016-04-07T11:20:32.233Z,140
2016-04-07T11:21:32.345Z,155
2016-04-07T11:22:45.925Z,180
2016-04-07T11:23:32.116Z,205
2016-04-07T11:24:32.977Z,250
2016-04-07T11:25:32.621Z,285
2016-04-07T11:26:31.685Z,265
2016-04-07T11:27:31.704Z,230
2016-04-07T11:28:31.426Z,200
2016-04-07T11:30:31.947Z,220
2016-04-07T11:31:31.746Z,265
2016-04-07T11:32:31.733Z,300
2016-04-07T11:33:31.768Z,290
2016-04-07T11:34:31.770Z,255
2016-04-07T11:35:31.773Z,220
2016-04-07T11:36:31.776Z,210
2016-04-07T11:37:31.793Z,225
2016-04-07T11:38:31.796Z,245
2016-04-07T11:39:32.081Z,235
2016-04-07T11:40:31.818Z,215
2016-04-07T11:41:31.867Z,210
2016-04-07T11:42:31.948Z,230
2016-04-07T11:43:31.826Z,245
2016-04-07T11:44:32.047Z,270
2016-04-07T11:45:31.862Z,315
2016-04-07T11:46:31.850Z,365
2016-04-07T11:47:31.867Z,395
2016-04-07T11:48:31.886Z,425
2016-04-07T11:49:31.873Z,480
2016-04-07T11:50:32.125Z,540
2016-04-07T11:51:31.909Z,540
2016-04-07T11:52:31.912Z,540
2016-04-07T11:53:32.149Z,570
2016-04-07T11:54:31.949Z,590
2016-04-07T11:55:32.795Z,580
2016-04-07T11:56:31.955Z,595
2016-04-07T11:57:31.972Z,590
2016-04-07T11:58:32.460Z,565
2016-04-07T11:59:32.838Z,515
2016-04-07T12:00:31.996Z,500
2016-04-07T12:01:32.874Z,535
2016-04-07T12:02:32.236Z,555
2016-04-07T12:03:32.348Z,555
2016-04-07T12:04:32.632Z,540
2016-04-07T12:05:46.729Z,500
2016-04-07T12:06:32.434Z,490
2016-04-07T12:07:32.452Z,480
2016-04-07T12:08:32.737Z,440
2016-04-07T12:09:32.614Z,435
2016-04-07T12:10:32.679Z,450
2016-04-07T12:11:32.494Z,470
2016-04-07T12:12:33.169Z,445
2016-04-07T12:13:32.828Z,380
2016-04-07T12:14:32.909Z,325
2016-04-07T12:15:32.631Z,285
2016-04-07T12:16:32.101Z,280
2016-04-07T12:17:32.339Z,265
2016-04-07T12:18:32.606Z,235
2016-04-07T12:19:32.141Z,215
2016-04-07T12:20:32.144Z,190
2016-04-07T12:21:31.802Z,175
2016-04-07T12:22:32.258Z,155
2016-04-07T12:23:33.979Z,150
2016-04-07T12:24:32.216Z,165
2016-04-07T12:25:32.000Z,190
2016-04-07T12:26:32.597Z,185
2016-04-07T12:27:32.413Z,165
2016-04-07T12:28:32.415Z,160
2016-04-07T12:29:32.418Z,160
2016-04-07T12:30:32.983Z,165
2016-04-07T12:31:32.751Z,205
2016-04-07T12:32:33.441Z,250
2016-04-07T12:33:32.803Z,300
2016-04-07T12:34:32.665Z,335
2016-04-07T12:35:32.652Z,345
2016-04-07T12:36:32.640Z,345
2016-04-07T12:37:32.955Z,345
2016-04-07T12:38:32.567Z,350
2016-04-07T12:39:32.663Z,365
2016-04-07T12:40:33.525Z,405
2016-04-07T12:41:33.872Z,435
2016-04-07T12:42:32.937Z,440
2016-04-07T12:43:32.815Z,455
2016-04-07T12:44:32.818Z,460
2016-04-07T12:45:32.898Z,425
2016-04-07T12:46:33.479Z,395
2016-04-07T12:47:33.200Z,380
2016-04-07T12:48:32.750Z,365
2016-04-07T12:49:33.111Z,365
2016-04-07T12:50:33.271Z,365
2016-04-07T12:51:32.914Z,390
2016-04-07T12:52:32.854Z,510
2016-04-07T12:53:32.342Z,580
2016-04-07T12:54:32.907Z,540
2016-04-07T12:55:33.488Z,515
2016-04-07T12:56:32.259Z,510
2016-04-07T12:57:32.918Z,485
2016-04-07T12:58:32.780Z,450
2016-04-07T12:59:33.188Z,420
2016-04-07T13:00:47.082Z,425
2016-04-07T13:01:32.757Z,480
2016-04-07T13:02:33.228Z,620
2016-04-07T13:03:32.840Z,650
2016-04-07T13:04:33.030Z,595
2016-04-07T13:05:33.111Z,545
2016-04-07T13:06:33.113Z,455
2016-04-07T13:07:33.070Z,410
2016-04-07T13:08:33.041Z,415
2016-04-07T13:09:33.715Z,455
2016-04-07T13:10:47.390Z,480
2016-04-07T13:11:33.174Z,475
2016-04-07T13:12:33.114Z,455
2016-04-07T13:13:33.258Z,485
2016-04-07T13:14:31.807Z,495
2016-04-07T13:15:32.529Z,485
2016-04-07T13:16:33.219Z,475
2016-04-07T13:17:32.987Z,490
2016-04-07T13:18:32.849Z,500
2016-04-07T13:19:32.570Z,515
2016-04-07T13:20:32.776Z,510
2016-04-07T13:21:32.435Z,495
2016-04-07T13:22:32.611Z,505
2016-04-07T13:23:32.597Z,505
2016-04-07T13:24:46.709Z,480
2016-04-07T13:25:32.681Z,455
2016-04-07T13:26:32.480Z,445
2016-04-07T13:27:32.535Z,460
2016-04-07T13:28:32.693Z,475
2016-04-07T13:29:32.774Z,480
2016-04-07T13:30:33.136Z,470
2016-04-07T13:31:32.718Z,455
2016-04-07T13:32:32.205Z,455
2016-04-07T13:33:32.707Z,435
2016-04-07T13:34:32.694Z,395
2016-04-07T13:35:32.696Z,360
2016-04-07T13:36:32.731Z,360
2016-04-07T13:37:32.733Z,380
2016-04-07T13:38:32.751Z,405
2016-04-07T13:39:32.739Z,410
2016-04-07T13:40:33.288Z,395
2016-04-07T13:41:32.760Z,380
2016-04-07T13:42:32.793Z,390
2016-04-07T13:43:32.625Z,410
2016-04-07T13:44:32.815Z,405
2016-04-07T13:45:32.801Z,410
2016-04-07T13:46:33.023Z,430
2016-04-07T13:47:32.869Z,450
2016-04-07T13:48:32.841Z,425
2016-04-07T13:49:32.859Z,405
2016-04-07T13:50:32.862Z,395
2016-04-07T13:51:32.880Z,390
2016-04-07T13:52:33.070Z,380
2016-04-07T13:53:32.902Z,375
2016-04-07T13:54:32.920Z,395
2016-04-07T13:55:33.000Z,390
2016-04-07T13:56:33.331Z,375
2016-04-07T13:57:33.115Z,365
2016-04-07T13:58:32.930Z,370
2016-04-07T13:59:33.214Z,360
2016-04-07T14:00:33.186Z,355
2016-04-07T14:01:47.049Z,360
2016-04-07T14:02:32.988Z,360
2016-04-07T14:03:32.475Z,360
2016-04-07T14:04:47.977Z,375
2016-04-07T14:05:34.309Z,380
2016-04-07T14:06:47.232Z,355
2016-04-07T14:07:46.814Z,355
2016-04-07T14:08:33.551Z,360
2016-04-07T14:09:33.240Z,355
2016-04-07T14:10:32.588Z,340
2016-04-07T14:11:32.934Z,330
2016-04-07T14:12:33.328Z,330
2016-04-07T14:13:47.159Z,325
2016-04-07T14:14:33.145Z,330
2016-04-07T14:15:33.179Z,345
2016-04-07T14:16:33.119Z,355
2016-04-07T14:17:33.153Z,360
2016-04-07T14:18:33.155Z,370
2016-04-07T14:19:33.111Z,380
2016-04-07T14:20:32.661Z,395
2016-04-07T14:21:47.367Z,400
2016-04-07T14:22:33.386Z,410